createdAt,value
2023-06-17T00:00:39.304Z,14.73
2023-06-17T00:03:06.245Z,14.68
2023-06-17T00:05:32.783Z,14.65
2023-06-17T00:07:59.451Z,14.49
2023-06-17T00:10:25.949Z,14.47
2023-06-17T00:12:52.822Z,14.52
2023-06-17T00:15:21.651Z,14.48
2023-06-17T00:17:48.357Z,14.46
2023-06-17T00:20:15.623Z,14.47
2023-06-17T00:22:44.361Z,14.56
2023-06-17T00:25:12.911Z,14.58
2023-06-17T00:27:40.394Z,14.72
2023-06-17T00:30:08.528Z,14.68
2023-06-17T00:32:38.054Z,14.65
2023-06-17T00:35:06.566Z,14.57
2023-06-17T00:37:33.614Z,14.62
2023-06-17T00:40:00.346Z,14.53
2023-06-17T00:42:27.097Z,14.66
2023-06-17T00:44:53.678Z,14.83
2023-06-17T00:47:20.931Z,14.70
2023-06-17T00:49:48.270Z,14.77
2023-06-17T00:52:35.663Z,14.66
2023-06-17T00:55:02.932Z,14.65
2023-06-17T00:57:30.534Z,14.72
2023-06-17T00:59:56.969Z,15.08
2023-06-17T01:05:02.462Z,15.00
2023-06-17T01:07:51.928Z,14.92
2023-06-17T01:10:43.651Z,15.01
2023-06-17T01:13:13.321Z,14.43
2023-06-17T01:15:40.841Z,14.55
2023-06-17T01:18:08.970Z,14.53
2023-06-17T01:20:37.513Z,14.50
2023-06-17T01:23:06.399Z,14.47
2023-06-17T01:25:33.212Z,14.33
2023-06-17T01:28:02.166Z,14.54
2023-06-17T01:30:30.039Z,14.20
2023-06-17T01:33:00.838Z,14.35
2023-06-17T01:35:33.221Z,14.16
2023-06-17T01:38:10.843Z,14.36
2023-06-17T01:40:41.278Z,14.46
2023-06-17T01:43:09.873Z,14.37
2023-06-17T01:45:36.903Z,14.47
2023-06-17T01:48:04.081Z,14.33
2023-06-17T01:50:31.128Z,14.41
2023-06-17T01:52:57.527Z,14.31
2023-06-17T01:55:23.906Z,14.16
2023-06-17T01:57:50.455Z,14.18
2023-06-17T02:00:18.493Z,14.23
2023-06-17T02:02:45.538Z,14.26
2023-06-17T02:05:13.517Z,14.27
2023-06-17T02:07:41.720Z,14.40
2023-06-17T02:10:08.408Z,14.42
2023-06-17T02:12:34.846Z,14.39
2023-06-17T02:15:01.205Z,14.14
2023-06-17T02:17:28.385Z,14.16
2023-06-17T02:19:55.765Z,14.19
2023-06-17T02:22:22.655Z,14.29
2023-06-17T02:24:49.418Z,14.28
2023-06-17T02:27:17.645Z,14.31
2023-06-17T02:29:44.826Z,14.37
2023-06-17T02:32:11.353Z,14.19
2023-06-17T02:34:38.411Z,14.31
2023-06-17T02:37:05.501Z,14.44
2023-06-17T02:39:32.194Z,14.56
2023-06-17T02:42:00.946Z,14.47
2023-06-17T02:44:28.778Z,14.54
2023-06-17T02:46:55.383Z,14.57
2023-06-17T02:49:21.945Z,14.35
2023-06-17T02:51:48.874Z,14.58
2023-06-17T02:54:15.385Z,14.57
2023-06-17T02:56:42.009Z,14.78
2023-06-17T02:59:09.756Z,14.50
2023-06-17T03:01:41.430Z,14.45
2023-06-17T03:04:11.793Z,14.45
2023-06-17T03:06:42.096Z,14.57
2023-06-17T03:09:09.802Z,14.48
2023-06-17T03:11:37.610Z,14.48
2023-06-17T03:14:04.936Z,14.40
2023-06-17T03:16:35.321Z,14.44
2023-06-17T03:19:02.580Z,14.36
2023-06-17T03:21:30.662Z,14.40
2023-06-17T03:24:00.302Z,14.57
2023-06-17T03:26:26.922Z,14.66
2023-06-17T03:28:54.550Z,14.18
2023-06-17T03:31:21.718Z,14.20
2023-06-17T03:33:51.287Z,14.52
2023-06-17T03:36:19.621Z,14.23
2023-06-17T03:38:49.067Z,14.22
2023-06-17T03:41:16.003Z,14.04
2023-06-17T03:43:42.357Z,13.98
2023-06-17T03:46:11.130Z,14.08
2023-06-17T03:48:37.631Z,14.18
2023-06-17T03:51:04.050Z,14.14
2023-06-17T03:53:30.634Z,14.32
2023-06-17T03:55:57.177Z,14.09
2023-06-17T03:58:23.766Z,14.30
2023-06-17T04:00:50.973Z,14.18
2023-06-17T04:03:19.470Z,14.36
2023-06-17T04:05:45.968Z,14.58
2023-06-17T04:08:13.084Z,14.64
2023-06-17T04:10:39.557Z,14.78
2023-06-17T04:13:05.936Z,14.79
2023-06-17T04:15:32.390Z,14.65
2023-06-17T04:17:58.933Z,14.90
2023-06-17T04:20:26.792Z,14.64
2023-06-17T04:22:53.447Z,14.85
2023-06-17T04:25:22.151Z,14.69
2023-06-17T04:27:54.927Z,14.89
2023-06-17T04:30:22.014Z,15.06
2023-06-17T04:32:51.513Z,14.91
2023-06-17T04:35:19.956Z,14.92
2023-06-17T04:37:56.204Z,15.10
2023-06-17T04:40:23.820Z,15.04
2023-06-17T04:42:51.667Z,14.88
2023-06-17T04:45:18.783Z,14.82
2023-06-17T04:47:46.529Z,14.76
2023-06-17T04:50:14.203Z,14.89
2023-06-17T04:52:44.747Z,14.94
2023-06-17T04:55:15.403Z,14.90
2023-06-17T04:57:46.077Z,14.93
2023-06-17T05:00:13.680Z,14.95
2023-06-17T05:02:41.142Z,14.90
2023-06-17T05:05:08.359Z,15.04
2023-06-17T05:07:36.538Z,14.83
2023-06-17T05:10:03.790Z,14.93
2023-06-17T05:12:33.525Z,15.05
2023-06-17T05:15:00.028Z,14.94
2023-06-17T05:17:26.944Z,15.11
2023-06-17T05:19:53.916Z,14.75
2023-06-17T05:22:20.767Z,14.68
2023-06-17T05:24:47.475Z,14.89
2023-06-17T05:27:14.570Z,14.99
2023-06-17T05:29:41.910Z,15.06
2023-06-17T05:32:08.339Z,15.11
2023-06-17T05:34:35.128Z,15.34
2023-06-17T05:37:01.844Z,15.58
2023-06-17T05:39:28.365Z,15.46
2023-06-17T05:41:55.425Z,15.11
2023-06-17T05:44:22.038Z,15.29
2023-06-17T05:46:48.614Z,15.07
2023-06-17T05:49:16.094Z,15.22
2023-06-17T05:51:43.003Z,15.23
2023-06-17T05:54:09.415Z,15.20
2023-06-17T05:56:35.935Z,15.35
2023-06-17T05:59:02.552Z,15.15
2023-06-17T06:01:28.954Z,15.43
2023-06-17T06:03:55.788Z,15.47
2023-06-17T06:06:22.208Z,15.65
2023-06-17T06:08:48.811Z,15.53
2023-06-17T06:11:17.253Z,15.58
2023-06-17T06:13:44.069Z,15.56
2023-06-17T06:16:10.508Z,15.81
2023-06-17T06:18:37.206Z,16.01
2023-06-17T06:21:03.914Z,15.70
2023-06-17T06:23:31.172Z,15.86
2023-06-17T06:25:57.692Z,16.10
2023-06-17T06:28:24.331Z,15.29
2023-06-17T06:30:50.723Z,15.32
2023-06-17T06:33:17.272Z,15.56
2023-06-17T06:35:44.327Z,15.21
2023-06-17T06:38:10.932Z,14.97
2023-06-17T06:40:37.484Z,14.94
2023-06-17T06:43:04.215Z,15.24
2023-06-17T06:45:32.485Z,15.00
2023-06-17T06:47:59.477Z,15.24
2023-06-17T06:50:26.436Z,15.07
2023-06-17T06:52:54.875Z,15.46
2023-06-17T06:55:21.424Z,15.54
2023-06-17T06:57:47.889Z,15.68
2023-06-17T07:00:15.707Z,15.60
2023-06-17T07:02:42.583Z,15.31
2023-06-17T07:05:09.785Z,15.37
2023-06-17T07:07:36.273Z,15.42
2023-06-17T07:10:02.831Z,15.57
2023-06-17T07:12:29.350Z,15.38
2023-06-17T07:14:56.836Z,15.56
2023-06-17T07:17:26.415Z,15.37
2023-06-17T07:19:53.154Z,15.53
2023-06-17T07:22:19.668Z,15.71
2023-06-17T07:24:46.490Z,15.85
2023-06-17T07:27:13.934Z,15.92
2023-06-17T07:29:40.433Z,15.74
2023-06-17T07:32:07.367Z,15.56
2023-06-17T07:34:33.989Z,15.55
2023-06-17T07:37:01.995Z,15.81
2023-06-17T07:39:28.465Z,15.81
2023-06-17T07:41:55.352Z,16.12
2023-06-17T07:44:22.079Z,16.15
2023-06-17T07:46:50.078Z,15.98
2023-06-17T07:49:16.853Z,15.97
2023-06-17T07:51:43.204Z,15.79
2023-06-17T07:54:09.527Z,16.23
2023-06-17T07:56:36.308Z,16.27
2023-06-17T07:59:03.320Z,16.58
2023-06-17T08:01:29.909Z,16.77
2023-06-17T08:03:56.793Z,16.68
2023-06-17T08:06:23.455Z,16.62
2023-06-17T08:08:49.940Z,16.64
2023-06-17T08:11:16.539Z,16.94
2023-06-17T08:13:42.922Z,16.77
2023-06-17T08:16:09.423Z,16.82
2023-06-17T08:18:35.832Z,16.71
2023-06-17T08:21:02.332Z,17.08
2023-06-17T08:23:28.756Z,17.38
2023-06-17T08:25:55.212Z,17.16
2023-06-17T08:28:21.647Z,17.22
2023-06-17T08:30:50.294Z,17.03
2023-06-17T08:33:16.708Z,17.06
2023-06-17T08:35:43.177Z,17.40
2023-06-17T08:38:10.022Z,17.87
2023-06-17T08:40:37.989Z,18.08
2023-06-17T08:43:04.741Z,17.95
2023-06-17T08:45:31.883Z,17.72
2023-06-17T08:47:59.095Z,18.00
2023-06-17T08:50:27.722Z,18.34
2023-06-17T08:52:55.376Z,18.87
2023-06-17T08:55:22.591Z,19.22
2023-06-17T08:58:10.753Z,18.88
2023-06-17T09:00:37.324Z,18.71
2023-06-17T09:03:08.382Z,18.66
2023-06-17T09:05:36.274Z,18.63
2023-06-17T09:08:02.860Z,18.77
2023-06-17T09:10:30.099Z,19.13
2023-06-17T09:13:00.514Z,19.34
2023-06-17T09:15:27.453Z,19.65
2023-06-17T09:17:54.873Z,19.92
2023-06-17T09:20:21.869Z,20.30
2023-06-17T09:22:49.137Z,20.42
2023-06-17T09:25:17.084Z,20.13
2023-06-17T09:28:05.280Z,19.99
2023-06-17T09:30:38.359Z,20.10
2023-06-17T09:33:17.982Z,20.19
2023-06-17T09:35:44.613Z,20.22
2023-06-17T09:38:11.184Z,20.45
2023-06-17T09:40:39.337Z,20.67
2023-06-17T09:43:25.834Z,20.61
2023-06-17T09:46:06.282Z,20.74
2023-06-17T09:48:40.130Z,20.33
2023-06-17T09:51:10.936Z,19.55
2023-06-17T09:53:38.708Z,19.17
2023-06-17T09:56:07.909Z,19.20
2023-06-17T09:58:35.840Z,19.46
2023-06-17T10:01:07.429Z,19.57
2023-06-17T10:03:34.995Z,19.73
2023-06-17T10:06:21.093Z,20.04
2023-06-17T10:08:53.636Z,20.27
2023-06-17T10:11:21.514Z,20.60
2023-06-17T10:14:01.519Z,20.81
2023-06-17T10:16:32.189Z,21.15
2023-06-17T10:19:01.656Z,21.42
2023-06-17T10:21:31.239Z,21.51
2023-06-17T10:24:01.565Z,21.57
2023-06-17T10:26:29.906Z,21.42
2023-06-17T10:28:56.597Z,21.36
2023-06-17T10:31:31.076Z,21.04
2023-06-17T10:34:01.411Z,20.96
2023-06-17T10:36:30.099Z,20.97
2023-06-17T10:39:04.478Z,20.85
2023-06-17T10:41:43.335Z,21.29
2023-06-17T10:44:34.970Z,21.23
2023-06-17T10:47:02.995Z,20.96
2023-06-17T10:49:43.051Z,21.30
2023-06-17T10:52:13.873Z,21.28
2023-06-17T10:54:54.561Z,21.51
2023-06-17T10:57:33.039Z,21.99
2023-06-17T11:00:09.911Z,21.94
2023-06-17T11:02:38.692Z,21.78
2023-06-17T11:05:07.594Z,21.25
2023-06-17T11:07:35.214Z,21.12
2023-06-17T11:10:02.019Z,21.34
2023-06-17T11:12:28.496Z,21.64
2023-06-17T11:14:55.887Z,21.71
2023-06-17T11:17:22.760Z,21.89
2023-06-17T11:19:49.340Z,22.12
2023-06-17T11:22:17.652Z,22.42
2023-06-17T11:24:45.279Z,22.82
2023-06-17T11:27:13.361Z,23.11
2023-06-17T11:29:43.772Z,23.46
2023-06-17T11:32:11.796Z,23.29
2023-06-17T11:34:38.308Z,23.43
2023-06-17T11:37:07.778Z,22.97
2023-06-17T11:39:35.637Z,23.27
2023-06-17T11:42:04.635Z,23.29
2023-06-17T11:44:36.290Z,23.15
2023-06-17T11:47:07.603Z,23.19
2023-06-17T11:49:34.680Z,22.41
2023-06-17T11:52:11.017Z,22.32
2023-06-17T11:54:52.260Z,22.78
2023-06-17T11:57:23.071Z,22.83
2023-06-17T11:59:51.380Z,22.57
2023-06-17T12:02:19.198Z,22.38
2023-06-17T12:04:47.018Z,22.56
2023-06-17T12:07:13.802Z,22.71
2023-06-17T12:09:51.571Z,23.10
2023-06-17T12:12:33.658Z,23.30
2023-06-17T12:15:14.847Z,23.46
2023-06-17T12:17:45.059Z,23.23
2023-06-17T12:20:18.932Z,23.10
2023-06-17T12:22:47.966Z,22.70
2023-06-17T12:25:14.703Z,22.51
2023-06-17T12:27:42.228Z,22.50
2023-06-17T12:30:10.352Z,22.53
2023-06-17T12:32:37.811Z,22.35
2023-06-17T12:35:06.602Z,22.20
2023-06-17T12:37:38.362Z,22.18
2023-06-17T12:40:05.248Z,22.08
2023-06-17T12:42:31.959Z,22.06
2023-06-17T12:44:58.522Z,21.82
2023-06-17T12:47:26.338Z,21.87
2023-06-17T12:49:52.798Z,22.01
2023-06-17T12:52:19.202Z,22.13
2023-06-17T12:54:46.196Z,22.56
2023-06-17T12:57:15.550Z,22.90
2023-06-17T12:59:42.254Z,23.32
2023-06-17T13:02:08.604Z,22.81
2023-06-17T13:04:35.256Z,22.72
2023-06-17T13:07:02.264Z,22.50
2023-06-17T13:09:28.906Z,22.33
2023-06-17T13:11:55.855Z,22.26
2023-06-17T13:14:23.507Z,22.21
2023-06-17T13:16:50.802Z,22.15
2023-06-17T13:19:18.558Z,22.07
2023-06-17T13:21:44.968Z,22.11
2023-06-17T13:24:11.550Z,22.42
2023-06-17T13:26:38.256Z,22.82
2023-06-17T13:29:05.216Z,22.90
2023-06-17T13:31:33.433Z,22.98
2023-06-17T13:34:01.554Z,22.97
2023-06-17T13:36:29.077Z,23.45
2023-06-17T13:38:56.387Z,23.60
2023-06-17T13:41:23.029Z,23.70
2023-06-17T13:43:49.440Z,23.67
2023-06-17T13:46:16.164Z,23.80
2023-06-17T13:48:43.044Z,23.32
2023-06-17T13:51:09.458Z,23.55
2023-06-17T13:53:36.357Z,23.83
2023-06-17T13:56:03.289Z,23.88
2023-06-17T13:58:29.704Z,23.74
2023-06-17T14:00:57.453Z,23.94
2023-06-17T14:03:25.374Z,24.06
2023-06-17T14:05:52.550Z,24.42
2023-06-17T14:08:20.289Z,24.27
2023-06-17T14:10:48.737Z,24.01
2023-06-17T14:13:15.339Z,24.15
2023-06-17T14:15:41.956Z,24.07
2023-06-17T14:18:08.411Z,23.92
2023-06-17T14:20:35.127Z,23.76
2023-06-17T14:23:03.747Z,23.29
2023-06-17T14:25:30.534Z,23.56
2023-06-17T14:27:57.200Z,24.17
2023-06-17T14:30:24.693Z,24.07
2023-06-17T14:32:52.193Z,24.19
2023-06-17T14:35:20.575Z,24.31
2023-06-17T14:37:48.906Z,24.38
2023-06-17T14:40:16.381Z,24.52
2023-06-17T14:42:43.053Z,24.62
2023-06-17T14:45:11.903Z,24.52
2023-06-17T14:47:42.364Z,24.89
2023-06-17T14:50:12.089Z,24.76
2023-06-17T14:52:39.208Z,25.06
2023-06-17T14:55:06.926Z,24.92
2023-06-17T14:57:33.949Z,25.23
2023-06-17T15:00:01.790Z,25.18
2023-06-17T15:02:48.085Z,25.10
2023-06-17T15:05:15.007Z,25.48
2023-06-17T15:07:41.352Z,25.19
2023-06-17T15:10:08.226Z,25.17
2023-06-17T15:12:34.663Z,25.32
2023-06-17T15:15:02.422Z,25.44
2023-06-17T15:17:28.955Z,25.58
2023-06-17T15:19:55.500Z,25.68
2023-06-17T15:22:22.292Z,25.55
2023-06-17T15:24:48.828Z,25.85
2023-06-17T15:27:15.436Z,25.63
2023-06-17T15:29:41.912Z,25.61
2023-06-17T15:32:08.539Z,25.56
2023-06-17T15:34:35.578Z,25.39
2023-06-17T15:37:04.891Z,25.03
2023-06-17T15:39:32.745Z,24.85
2023-06-17T15:41:59.207Z,24.90
2023-06-17T15:44:25.646Z,24.94
2023-06-17T15:46:52.305Z,25.05
2023-06-17T15:49:20.755Z,24.91
2023-06-17T15:51:47.178Z,24.68
2023-06-17T15:54:15.059Z,24.77
2023-06-17T15:56:47.224Z,24.81
2023-06-17T15:59:14.369Z,24.82
2023-06-17T16:01:41.155Z,24.69
2023-06-17T16:04:40.407Z,24.72
2023-06-17T16:07:15.279Z,24.60
2023-06-17T16:09:44.156Z,24.31
2023-06-17T16:12:12.737Z,24.36
2023-06-17T16:14:39.397Z,24.37
2023-06-17T16:17:07.531Z,24.45
2023-06-17T16:19:36.405Z,24.43
2023-06-17T16:22:04.497Z,24.37
2023-06-17T16:24:31.823Z,24.38
2023-06-17T16:26:58.976Z,24.44
2023-06-17T16:29:25.821Z,24.40
2023-06-17T16:31:52.511Z,24.55
2023-06-17T16:34:19.123Z,24.43
2023-06-17T16:36:45.863Z,24.34
2023-06-17T16:39:12.331Z,24.28
2023-06-17T16:41:41.212Z,24.18
2023-06-17T16:44:08.860Z,24.25
2023-06-17T16:46:35.821Z,24.39
2023-06-17T16:49:04.297Z,24.26
2023-06-17T16:51:32.371Z,24.36
2023-06-17T16:54:00.772Z,24.53
2023-06-17T16:56:28.137Z,24.52
2023-06-17T16:58:55.049Z,24.59
2023-06-17T17:01:21.846Z,24.32
2023-06-17T17:03:48.677Z,24.16
2023-06-17T17:06:15.404Z,23.92
2023-06-17T17:08:41.812Z,23.99
2023-06-17T17:11:08.441Z,23.79
2023-06-17T17:13:47.874Z,23.63
2023-06-17T17:16:16.235Z,23.51
2023-06-17T17:18:42.852Z,23.36
2023-06-17T17:21:09.314Z,23.42
2023-06-17T17:23:36.037Z,23.46
2023-06-17T17:26:03.699Z,23.47
2023-06-17T17:28:30.328Z,23.26
2023-06-17T17:30:56.809Z,23.13
2023-06-17T17:33:24.469Z,22.82
2023-06-17T17:35:51.590Z,22.73
2023-06-17T17:38:18.376Z,22.69
2023-06-17T17:40:45.076Z,22.68
2023-06-17T17:43:11.458Z,22.46
2023-06-17T17:45:38.016Z,22.35
2023-06-17T17:48:04.650Z,22.41
2023-06-17T17:50:31.521Z,22.45
2023-06-17T17:52:59.001Z,22.46
2023-06-17T17:55:25.437Z,22.43
2023-06-17T17:57:51.859Z,22.28
2023-06-17T18:00:19.524Z,22.24
2023-06-17T18:02:46.698Z,22.14
2023-06-17T18:05:13.424Z,22.10
2023-06-17T18:07:40.369Z,22.14
2023-06-17T18:10:07.618Z,22.11
2023-06-17T18:12:34.219Z,22.01
2023-06-17T18:15:00.773Z,21.94
2023-06-17T18:17:27.895Z,22.06
2023-06-17T18:19:54.317Z,22.01
2023-06-17T18:22:20.996Z,22.01
2023-06-17T18:24:47.669Z,21.91
2023-06-17T18:27:30.869Z,21.92
2023-06-17T18:30:01.953Z,21.91
2023-06-17T18:32:28.345Z,21.88
2023-06-17T18:34:56.875Z,21.86
2023-06-17T18:37:23.471Z,21.79
2023-06-17T18:39:52.498Z,21.80
2023-06-17T18:42:21.364Z,21.74
2023-06-17T18:44:48.509Z,21.65
2023-06-17T18:47:14.888Z,21.47
2023-06-17T18:49:42.127Z,21.48
2023-06-17T18:52:08.793Z,21.38
2023-06-17T18:54:35.447Z,21.43
2023-06-17T18:57:01.902Z,21.48
2023-06-17T18:59:29.111Z,21.55
2023-06-17T19:01:55.802Z,21.43
2023-06-17T19:04:22.235Z,21.36
2023-06-17T19:06:50.213Z,21.26
2023-06-17T19:09:16.842Z,21.10
2023-06-17T19:11:43.467Z,21.00
2023-06-17T19:14:09.955Z,20.84
2023-06-17T19:16:36.706Z,20.73
2023-06-17T19:19:03.112Z,20.68
2023-06-17T19:21:31.288Z,20.66
2023-06-17T19:23:57.686Z,20.64
2023-06-17T19:26:25.704Z,20.46
2023-06-17T19:28:52.553Z,20.29
2023-06-17T19:31:18.971Z,20.20
2023-06-17T19:33:45.683Z,20.10
2023-06-17T19:36:12.076Z,20.06
2023-06-17T19:38:39.091Z,19.97
2023-06-17T19:41:05.615Z,19.81
2023-06-17T19:43:34.811Z,19.71
2023-06-17T19:46:04.889Z,19.79
2023-06-17T19:48:31.712Z,19.56
2023-06-17T19:51:00.529Z,19.25
2023-06-17T19:53:27.257Z,19.21
2023-06-17T19:55:53.962Z,18.99
2023-06-17T19:58:21.939Z,18.90
2023-06-17T20:00:48.872Z,18.87
2023-06-17T20:03:16.009Z,18.87
2023-06-17T20:05:42.648Z,18.75
2023-06-17T20:08:09.066Z,18.70
2023-06-17T20:10:35.622Z,18.61
2023-06-17T20:13:02.026Z,18.66
2023-06-17T20:15:30.281Z,18.59
2023-06-17T20:17:56.760Z,18.57
2023-06-17T20:20:23.541Z,18.49
2023-06-17T20:22:50.921Z,18.38
2023-06-17T20:25:19.194Z,18.35
2023-06-17T20:27:45.731Z,18.31
2023-06-17T20:30:12.656Z,18.24
2023-06-17T20:32:39.170Z,18.11
2023-06-17T20:35:05.854Z,18.02
2023-06-17T20:37:32.205Z,18.10
2023-06-17T20:39:58.780Z,18.10
2023-06-17T20:42:25.185Z,18.01
2023-06-17T20:44:52.280Z,17.75
2023-06-17T20:47:18.996Z,17.66
2023-06-17T20:49:45.494Z,17.67
2023-06-17T20:52:11.925Z,17.35
2023-06-17T20:54:38.273Z,17.22
2023-06-17T20:57:05.275Z,17.16
2023-06-17T20:59:32.136Z,17.23
2023-06-17T21:01:58.541Z,17.15
2023-06-17T21:04:24.990Z,16.99
2023-06-17T21:06:51.540Z,17.30
2023-06-17T21:09:17.940Z,17.28
2023-06-17T21:11:45.408Z,17.44
2023-06-17T21:14:13.146Z,17.20
2023-06-17T21:16:41.143Z,17.03
2023-06-17T21:19:07.628Z,16.85
2023-06-17T21:21:33.973Z,16.62
2023-06-17T21:24:01.906Z,16.58
2023-06-17T21:26:28.274Z,16.80
2023-06-17T21:28:56.217Z,16.69
2023-06-17T21:31:22.609Z,16.76
2023-06-17T21:33:51.416Z,16.72
2023-06-17T21:36:18.095Z,16.72
2023-06-17T21:38:44.679Z,16.72
2023-06-17T21:41:11.146Z,16.75
2023-06-17T21:43:37.709Z,16.50
2023-06-17T21:46:04.689Z,16.36
2023-06-17T21:48:31.850Z,16.48
2023-06-17T21:50:58.425Z,16.46
2023-06-17T21:53:25.110Z,16.37
2023-06-17T21:55:51.547Z,16.47
2023-06-17T21:58:19.371Z,16.32
2023-06-17T22:00:46.634Z,16.15
2023-06-17T22:03:14.386Z,15.83
2023-06-17T22:05:41.041Z,15.68
2023-06-17T22:08:07.623Z,15.56
2023-06-17T22:10:34.017Z,15.56
2023-06-17T22:13:00.525Z,15.55
2023-06-17T22:15:27.147Z,15.48
2023-06-17T22:17:55.160Z,15.57
2023-06-17T22:20:22.433Z,15.44
2023-06-17T22:22:49.248Z,15.39
2023-06-17T22:25:15.767Z,15.26
2023-06-17T22:27:42.314Z,15.18
2023-06-17T22:30:09.403Z,15.14
2023-06-17T22:32:36.121Z,15.09
2023-06-17T22:35:03.055Z,15.19
2023-06-17T22:37:29.411Z,15.20
2023-06-17T22:39:56.124Z,15.09
2023-06-17T22:42:22.788Z,14.77
2023-06-17T22:44:49.447Z,14.90
2023-06-17T22:47:15.910Z,15.07
2023-06-17T22:49:42.489Z,15.09
2023-06-17T22:52:09.006Z,15.00
2023-06-17T22:54:35.431Z,14.92
2023-06-17T22:57:02.017Z,14.91
2023-06-17T22:59:29.159Z,14.93
2023-06-17T23:01:55.605Z,14.89
2023-06-17T23:04:22.219Z,14.58
2023-06-17T23:06:48.766Z,14.51
2023-06-17T23:09:15.418Z,14.48
2023-06-17T23:11:41.799Z,14.36
2023-06-17T23:14:09.269Z,14.26
2023-06-17T23:16:36.158Z,14.30
2023-06-17T23:19:02.803Z,14.46
2023-06-17T23:21:30.400Z,14.49
2023-06-17T23:23:56.769Z,14.30
2023-06-17T23:26:23.900Z,14.15
2023-06-17T23:28:52.987Z,13.99
2023-06-17T23:31:19.583Z,14.04
2023-06-17T23:33:46.136Z,13.99
2023-06-17T23:36:12.648Z,13.90
2023-06-17T23:38:40.711Z,13.99
2023-06-17T23:41:07.360Z,14.07
2023-06-17T23:43:33.841Z,14.12
2023-06-17T23:46:01.413Z,14.11
2023-06-17T23:48:28.399Z,14.19
2023-06-17T23:50:55.129Z,14.28
2023-06-17T23:53:21.602Z,14.37
2023-06-17T23:55:48.465Z,14.40
2023-06-17T23:58:16.228Z,14.45
